Time,TemperatureF,DewpointF,PressureIn,WindDirection,WindDirectionDegrees,WindSpeedMPH,WindSpeedGustMPH,Humidity,HourlyPrecipIn,Conditions,Clouds,dailyrainin,SoftwareType,DateUTC
2013-08-18 00:01:00,65.1,61.0,30.14,ENE,65,2.0,4.0,87,0.00,,,0.00,weatherlink.com 1.10,2013-08-18 05:01:00,
2013-08-18 00:16:00,64.9,61.0,30.14,ENE,65,2.0,4.0,88,0.00,,,0.00,weatherlink.com 1.10,2013-08-18 05:16:00,
2013-08-18 00:31:00,64.5,61.0,30.14,ENE,65,3.0,3.0,89,0.00,,,0.00,weatherlink.com 1.10,2013-08-18 05:31:00,
2013-08-18 00:46:00,63.9,61.0,30.14,ENE,65,0.0,2.0,90,0.00,,,0.00,weatherlink.com 1.10,2013-08-18 05:46:00,
2013-08-18 01:01:00,63.4,61.0,30.14,ENE,65,1.0,2.0,91,0.00,,,0.00,weatherlink.com 1.10,2013-08-18 06:01:00,
2013-08-18 01:16:00,63.1,61.0,30.14,ENE,65,2.0,3.0,92,0.00,,,0.00,weatherlink.com 1.10,2013-08-18 06:16:00,
2013-08-18 01:31:00,63.1,61.0,30.14,ENE,65,1.0,2.0,92,0.00,,,0.00,weatherlink.com 1.10,2013-08-18 06:31:00,
2013-08-18 01:46:00,63.0,61.0,30.14,ENE,65,0.0,2.0,92,0.00,,,0.00,weatherlink.com 1.10,2013-08-18 06:46:00,
2013-08-18 02:01:00,62.8,61.0,30.14,ENE,67,3.0,3.0,92,0.00,,,0.00,weatherlink.com 1.10,2013-08-18 07:01:00,
2013-08-18 02:16:00,62.7,60.0,30.14,ENE,67,1.0,3.0,92,0.00,,,0.00,weatherlink.com 1.10,2013-08-18 07:16:00,
2013-08-18 02:31:00,62.7,60.0,30.14,ENE,67,2.0,3.0,92,0.00,,,0.00,weatherlink.com 1.10,2013-08-18 07:31:00,
2013-08-18 02:46:00,62.6,60.0,30.14,ENE,67,1.0,3.0,92,0.00,,,0.00,weatherlink.com 1.10,2013-08-18 07:46:00,
2013-08-18 03:01:00,62.8,61.0,30.14,ENE,73,1.0,4.0,92,0.00,,,0.00,weatherlink.com 1.10,2013-08-18 08:01:00,
2013-08-18 03:16:00,63.0,60.0,30.14,ENE,73,3.0,3.0,91,0.00,,,0.00,weatherlink.com 1.10,2013-08-18 08:16:00,
2013-08-18 03:31:00,63.1,61.0,30.14,ENE,73,0.0,3.0,91,0.00,,,0.00,weatherlink.com 1.10,2013-08-18 08:31:00,
2013-08-18 03:46:00,62.7,60.0,30.14,ENE,74,0.0,0.0,91,0.00,,,0.00,weatherlink.com 1.10,2013-08-18 08:46:00,
2013-08-18 04:01:00,62.1,60.0,30.14,ENE,74,0.0,1.0,92,0.00,,,0.00,weatherlink.com 1.10,2013-08-18 09:01:00,
2013-08-18 04:17:00,61.6,60.0,30.14,ENE,74,0.0,1.0,93,0.00,,,0.00,weatherlink.com 1.10,2013-08-18 09:17:00,
2013-08-18 04:32:00,61.3,60.0,30.14,ENE,74,0.0,1.0,94,0.00,,,0.00,weatherlink.com 1.10,2013-08-18 09:32:00,
2013-08-18 04:47:00,60.9,59.0,30.14,ENE,73,2.0,3.0,94,0.00,,,0.00,weatherlink.com 1.10,2013-08-18 09:47:00,
2013-08-18 05:02:00,60.6,59.0,30.14,ENE,73,0.0,2.0,95,0.00,,,0.00,weatherlink.com 1.10,2013-08-18 10:02:00,
2013-08-18 05:17:00,60.6,59.0,30.14,ENE,74,1.0,3.0,95,0.00,,,0.00,weatherlink.com 1.10,2013-08-18 10:17:00,
2013-08-18 05:32:00,60.6,59.0,30.14,ENE,74,0.0,0.0,95,0.00,,,0.00,weatherlink.com 1.10,2013-08-18 10:32:00,
2013-08-18 05:47:00,60.5,59.0,30.15,ENE,74,1.0,3.0,95,0.00,,,0.00,weatherlink.com 1.10,2013-08-18 10:47:00,
2013-08-18 06:02:00,60.8,59.0,30.15,ENE,74,0.0,2.0,95,0.00,,,0.00,weatherlink.com 1.10,2013-08-18 11:02:00,
2013-08-18 06:17:00,60.5,59.0,30.15,ENE,74,0.0,0.0,95,0.00,,,0.00,weatherlink.com 1.10,2013-08-18 11:17:00,
2013-08-18 06:32:00,60.4,59.0,30.16,ENE,74,0.0,0.0,95,0.00,,,0.00,weatherlink.com 1.10,2013-08-18 11:32:00,
2013-08-18 06:47:00,60.5,59.0,30.16,ENE,74,0.0,2.0,95,0.00,,,0.00,weatherlink.com 1.10,2013-08-18 11:47:00,
2013-08-18 07:03:00,60.7,60.0,30.16,ENE,74,3.0,3.0,96,0.00,,,0.00,weatherlink.com 1.10,2013-08-18 12:03:00,
2013-08-18 07:17:00,61.1,60.0,30.16,ENE,75,2.0,4.0,95,0.00,,,0.00,weatherlink.com 1.10,2013-08-18 12:17:00,
2013-08-18 07:32:00,61.4,60.0,30.17,ENE,75,2.0,4.0,95,0.00,,,0.00,weatherlink.com 1.10,2013-08-18 12:32:00,
2013-08-18 07:47:00,62.2,61.0,30.17,ENE,75,3.0,4.0,95,0.00,,,0.00,weatherlink.com 1.10,2013-08-18 12:47:00,
2013-08-18 08:02:00,63.2,62.0,30.17,ENE,78,4.0,7.0,94,0.00,,,0.00,weatherlink.com 1.10,2013-08-18 13:02:00,
2013-08-18 08:17:00,64.2,62.0,30.17,East,79,6.0,8.0,92,0.00,,,0.00,weatherlink.com 1.10,2013-08-18 13:17:00,
2013-08-18 08:32:00,65.1,63.0,30.18,East,80,1.0,4.0,91,0.00,,,0.00,weatherlink.com 1.10,2013-08-18 13:32:00,
2013-08-18 08:47:00,66.5,64.0,30.18,East,80,2.0,3.0,90,0.00,,,0.00,weatherlink.com 1.10,2013-08-18 13:47:00,
2013-08-18 09:02:00,67.7,64.0,30.18,ENE,76,4.0,5.0,87,0.00,,,0.00,weatherlink.com 1.10,2013-08-18 14:02:00,
2013-08-18 09:17:00,69.6,64.0,30.18,ENE,76,3.0,3.0,83,0.00,,,0.00,weatherlink.com 1.10,2013-08-18 14:17:00,
2013-08-18 09:32:00,70.8,62.0,30.18,NNE,24,4.0,5.0,74,0.00,,,0.00,weatherlink.com 1.10,2013-08-18 14:32:00,
2013-08-18 09:47:00,71.7,61.0,30.18,NE,36,1.0,6.0,70,0.00,,,0.00,weatherlink.com 1.10,2013-08-18 14:47:00,
2013-08-18 10:02:00,72.1,62.0,30.18,ENE,61,4.0,7.0,70,0.00,,,0.00,weatherlink.com 1.10,2013-08-18 15:02:00,
2013-08-18 10:17:00,73.0,63.0,30.18,East,80,3.0,6.0,71,0.00,,,0.00,weatherlink.com 1.10,2013-08-18 15:17:00,
2013-08-18 10:32:00,73.4,63.0,30.18,North,9,3.0,8.0,71,0.00,,,0.00,weatherlink.com 1.10,2013-08-18 15:32:00,
2013-08-18 10:47:00,73.7,62.0,30.18,NNE,30,4.0,8.0,68,0.00,,,0.00,weatherlink.com 1.10,2013-08-18 15:47:00,
2013-08-18 11:02:00,73.9,64.0,30.18,ENE,59,9.0,9.0,70,0.00,,,0.00,weatherlink.com 1.10,2013-08-18 16:02:00,
2013-08-18 11:17:00,74.4,64.0,30.18,East,90,2.0,9.0,71,0.00,,,0.00,weatherlink.com 1.10,2013-08-18 16:17:00,
2013-08-18 11:32:00,75.2,64.0,30.18,East,99,7.0,9.0,68,0.00,,,0.00,weatherlink.com 1.10,2013-08-18 16:32:00,
2013-08-18 11:47:00,75.7,64.0,30.18,NNE,32,5.0,13.0,67,0.00,,,0.00,weatherlink.com 1.10,2013-08-18 16:47:00,
2013-08-18 12:02:00,76.1,64.0,30.18,NE,49,5.0,10.0,66,0.00,,,0.00,weatherlink.com 1.10,2013-08-18 17:02:00,
2013-08-18 12:18:00,75.8,64.0,30.17,ENE,74,8.0,9.0,66,0.00,,,0.00,weatherlink.com 1.10,2013-08-18 17:18:00,
2013-08-18 12:33:00,75.8,64.0,30.16,ENE,59,7.0,8.0,67,0.00,,,0.00,weatherlink.com 1.10,2013-08-18 17:33:00,
2013-08-18 12:48:00,76.8,64.0,30.16,East,80,7.0,9.0,65,0.00,,,0.00,weatherlink.com 1.10,2013-08-18 17:48:00,
2013-08-18 13:03:00,77.4,63.0,30.16,NE,51,6.0,12.0,62,0.00,,,0.00,weatherlink.com 1.10,2013-08-18 18:03:00,
2013-08-18 13:18:00,77.5,63.0,30.16,ENE,76,5.0,12.0,61,0.00,,,0.00,weatherlink.com 1.10,2013-08-18 18:18:00,
2013-08-18 13:33:00,77.9,64.0,30.15,East,86,7.0,11.0,62,0.00,,,0.00,weatherlink.com 1.10,2013-08-18 18:33:00,
2013-08-18 13:48:00,78.6,64.0,30.14,ENE,65,4.0,11.0,61,0.00,,,0.00,weatherlink.com 1.10,2013-08-18 18:48:00,
2013-08-18 14:03:00,78.6,63.0,30.14,NE,49,3.0,9.0,60,0.00,,,0.00,weatherlink.com 1.10,2013-08-18 19:03:00,
2013-08-18 14:18:00,78.6,63.0,30.14,ENE,60,9.0,11.0,60,0.00,,,0.00,weatherlink.com 1.10,2013-08-18 19:18:00,
2013-08-18 14:33:00,78.0,63.0,30.14,East,88,3.0,8.0,60,0.00,,,0.00,weatherlink.com 1.10,2013-08-18 19:33:00,
2013-08-18 14:48:00,78.6,64.0,30.13,East,79,6.0,9.0,61,0.00,,,0.00,weatherlink.com 1.10,2013-08-18 19:48:00,
2013-08-18 15:03:00,79.5,63.0,30.13,East,82,6.0,10.0,57,0.00,,,0.00,weatherlink.com 1.10,2013-08-18 20:03:00,
2013-08-18 15:18:00,79.4,63.0,30.12,ENE,69,7.0,9.0,57,0.00,,,0.00,weatherlink.com 1.10,2013-08-18 20:18:00,
2013-08-18 15:33:00,79.0,63.0,30.12,SSE,154,3.0,5.0,58,0.00,,,0.00,weatherlink.com 1.10,2013-08-18 20:33:00,
2013-08-18 15:48:00,80.7,63.0,30.12,ENE,69,5.0,11.0,56,0.00,,,0.00,weatherlink.com 1.10,2013-08-18 20:48:00,
2013-08-18 16:03:00,78.0,63.0,30.12,East,84,7.0,11.0,60,0.00,,,0.00,weatherlink.com 1.10,2013-08-18 21:03:00,
2013-08-18 16:18:00,79.0,63.0,30.11,ESE,104,1.0,6.0,58,0.00,,,0.00,weatherlink.com 1.10,2013-08-18 21:18:00,
2013-08-18 16:33:00,79.8,65.0,30.11,ESE,107,4.0,7.0,61,0.00,,,0.00,weatherlink.com 1.10,2013-08-18 21:33:00,
2013-08-18 16:48:00,80.1,63.0,30.11,East,84,5.0,8.0,56,0.00,,,0.00,weatherlink.com 1.10,2013-08-18 21:48:00,
2013-08-18 17:03:00,80.1,64.0,30.10,ENE,76,3.0,11.0,58,0.00,,,0.00,weatherlink.com 1.10,2013-08-18 22:03:00,
2013-08-18 17:18:00,78.7,64.0,30.10,ENE,69,8.0,9.0,60,0.00,,,0.00,weatherlink.com 1.10,2013-08-18 22:18:00,
2013-08-18 17:33:00,79.0,64.0,30.10,East,95,6.0,8.0,61,0.00,,,0.00,weatherlink.com 1.10,2013-08-18 22:33:00,
2013-08-18 17:48:00,77.9,63.0,30.10,East,82,9.0,11.0,61,0.00,,,0.00,weatherlink.com 1.10,2013-08-18 22:48:00,
2013-08-18 18:03:00,76.7,64.0,30.10,East,101,3.0,7.0,65,0.00,,,0.00,weatherlink.com 1.10,2013-08-18 23:03:00,
2013-08-18 18:18:00,75.8,64.0,30.09,East,92,2.0,3.0,68,0.00,,,0.00,weatherlink.com 1.10,2013-08-18 23:18:00,
2013-08-18 18:33:00,76.1,65.0,30.09,ENE,77,2.0,7.0,69,0.00,,,0.00,weatherlink.com 1.10,2013-08-18 23:33:00,
2013-08-18 18:48:00,76.5,65.0,30.09,ESE,103,2.0,7.0,68,0.00,,,0.00,weatherlink.com 1.10,2013-08-18 23:48:00,
2013-08-18 19:03:00,76.2,65.0,30.09,East,95,2.0,6.0,68,0.00,,,0.00,weatherlink.com 1.10,2013-08-19 00:03:00,
2013-08-18 19:18:00,76.0,65.0,30.10,East,86,2.0,6.0,69,0.00,,,0.00,weatherlink.com 1.10,2013-08-19 00:18:00,
2013-08-18 19:33:00,75.4,65.0,30.10,East,86,1.0,3.0,71,0.00,,,0.00,weatherlink.com 1.10,2013-08-19 00:33:00,
2013-08-18 19:48:00,74.5,65.0,30.10,East,82,1.0,4.0,73,0.00,,,0.00,weatherlink.com 1.10,2013-08-19 00:48:00,
2013-08-18 20:03:00,73.7,65.0,30.10,East,82,3.0,5.0,74,0.00,,,0.00,weatherlink.com 1.10,2013-08-19 01:03:00,
2013-08-18 20:18:00,73.0,65.0,30.11,East,82,1.0,4.0,77,0.00,,,0.00,weatherlink.com 1.10,2013-08-19 01:18:00,
2013-08-18 20:33:00,72.0,65.0,30.11,East,82,2.0,5.0,79,0.00,,,0.00,weatherlink.com 1.10,2013-08-19 01:33:00,
2013-08-18 20:48:00,71.6,65.0,30.11,East,82,2.0,4.0,80,0.00,,,0.00,weatherlink.com 1.10,2013-08-19 01:48:00,
2013-08-18 21:03:00,71.0,65.0,30.11,East,82,3.0,3.0,82,0.00,,,0.00,weatherlink.com 1.10,2013-08-19 02:03:00,
2013-08-18 21:18:00,70.3,65.0,30.12,East,82,0.0,4.0,83,0.00,,,0.00,weatherlink.com 1.10,2013-08-19 02:18:00,
2013-08-18 21:33:00,69.3,65.0,30.12,East,82,0.0,1.0,85,0.00,,,0.00,weatherlink.com 1.10,2013-08-19 02:33:00,
2013-08-18 21:48:00,69.1,65.0,30.12,East,82,0.0,3.0,85,0.00,,,0.00,weatherlink.com 1.10,2013-08-19 02:48:00,
2013-08-18 22:03:00,69.0,65.0,30.12,East,82,2.0,4.0,86,0.00,,,0.00,weatherlink.com 1.10,2013-08-19 03:03:00,
2013-08-18 22:18:00,68.7,64.0,30.12,East,83,1.0,3.0,85,0.00,,,0.00,weatherlink.com 1.10,2013-08-19 03:18:00,
2013-08-18 22:33:00,67.9,64.0,30.12,East,83,0.0,2.0,87,0.00,,,0.00,weatherlink.com 1.10,2013-08-19 03:33:00,
2013-08-18 22:48:00,67.5,64.0,30.12,East,83,1.0,3.0,88,0.00,,,0.00,weatherlink.com 1.10,2013-08-19 03:48:00,
2013-08-18 23:03:00,67.4,64.0,30.12,East,83,2.0,3.0,88,0.00,,,0.00,weatherlink.com 1.10,2013-08-19 04:03:00,
2013-08-18 23:18:00,67.3,63.0,30.12,East,84,2.0,3.0,87,0.00,,,0.00,weatherlink.com 1.10,2013-08-19 04:18:00,
2013-08-18 23:33:00,67.2,63.0,30.13,East,84,2.0,3.0,87,0.00,,,0.00,weatherlink.com 1.10,2013-08-19 04:33:00,
2013-08-18 23:48:00,66.8,63.0,30.13,East,84,2.0,2.0,88,0.00,,,0.00,weatherlink.com 1.10,2013-08-19 04:48:00,